createdAt,value
2023-02-06T00:01:20.289Z,5.32
2023-02-06T00:03:46.790Z,5.00
2023-02-06T00:06:13.161Z,5.30
2023-02-06T00:08:40.161Z,5.25
2023-02-06T00:11:08.413Z,5.78
2023-02-06T00:13:36.176Z,4.63
2023-02-06T00:16:02.854Z,5.38
2023-02-06T00:18:29.602Z,5.20
2023-02-06T00:20:56.013Z,4.70
2023-02-06T00:23:22.558Z,5.05
2023-02-06T00:25:49.161Z,5.22
2023-02-06T00:28:15.684Z,4.75
2023-02-06T00:30:46.012Z,5.13
2023-02-06T00:33:13.227Z,4.63
2023-02-06T00:35:39.673Z,4.80
2023-02-06T00:38:06.733Z,5.07
2023-02-06T00:40:33.289Z,5.20
2023-02-06T00:42:59.652Z,4.65
2023-02-06T00:45:26.058Z,3.95
2023-02-06T00:47:52.429Z,4.63
2023-02-06T00:50:19.160Z,5.22
2023-02-06T00:52:45.700Z,5.25
2023-02-06T00:55:12.044Z,4.07
2023-02-06T00:57:38.391Z,4.10
2023-02-06T01:00:06.921Z,4.35
2023-02-06T01:02:33.397Z,3.60
2023-02-06T01:04:59.951Z,3.95
2023-02-06T01:07:26.368Z,3.42
2023-02-06T01:09:52.770Z,4.05
2023-02-06T01:12:19.513Z,3.75
2023-02-06T01:14:47.700Z,4.18
2023-02-06T01:17:14.099Z,3.70
2023-02-06T01:19:40.695Z,4.20
2023-02-06T01:22:07.237Z,3.88
2023-02-06T01:24:33.687Z,4.10
2023-02-06T01:27:00.299Z,4.35
2023-02-06T01:29:26.851Z,3.95
2023-02-06T01:31:53.258Z,4.25
2023-02-06T01:34:19.619Z,3.65
2023-02-06T01:36:46.056Z,3.63
2023-02-06T01:39:12.404Z,4.65
2023-02-06T01:41:38.884Z,4.45
2023-02-06T01:44:10.727Z,4.68
2023-02-06T01:46:41.200Z,3.60
2023-02-06T01:49:12.185Z,3.38
2023-02-06T01:51:39.089Z,3.88
2023-02-06T01:54:07.185Z,3.38
2023-02-06T01:56:40.254Z,4.05
2023-02-06T01:59:07.186Z,3.88
2023-02-06T02:01:34.080Z,3.15
2023-02-06T02:04:08.021Z,3.80
2023-02-06T02:06:34.912Z,3.05
2023-02-06T02:09:03.735Z,3.05
2023-02-06T02:11:36.655Z,3.80
2023-02-06T02:14:07.869Z,2.88
2023-02-06T02:16:40.272Z,3.67
2023-02-06T02:19:27.139Z,3.92
2023-02-06T02:25:02.775Z,2.85
2023-02-06T02:27:41.040Z,2.88
2023-02-06T02:30:29.011Z,3.75
2023-02-06T02:33:16.948Z,3.35
2023-02-06T02:35:54.382Z,3.38
2023-02-06T02:38:51.036Z,4.25
2023-02-06T02:41:28.859Z,4.07
2023-02-06T02:44:08.389Z,3.67
2023-02-06T02:46:43.086Z,3.22
2023-02-06T02:49:16.934Z,4.90
2023-02-06T02:51:45.060Z,4.10
2023-02-06T02:54:11.593Z,3.72
2023-02-06T02:56:38.777Z,4.05
2023-02-06T02:59:11.978Z,4.10
2023-02-06T03:01:51.852Z,3.42
2023-02-06T03:04:25.406Z,4.20
2023-02-06T03:07:03.526Z,4.03
2023-02-06T03:09:45.838Z,3.80
2023-02-06T03:12:32.809Z,3.50
2023-02-06T03:15:15.153Z,4.55
2023-02-06T03:17:53.236Z,4.57
2023-02-06T03:20:20.780Z,3.80
2023-02-06T03:22:50.734Z,4.47
2023-02-06T03:25:25.253Z,4.00
2023-02-06T03:27:53.729Z,3.78
2023-02-06T03:30:23.790Z,3.78
2023-02-06T03:32:55.159Z,3.60
2023-02-06T03:35:26.492Z,3.58
2023-02-06T03:37:53.549Z,3.65
2023-02-06T03:40:20.817Z,4.10
2023-02-06T03:42:56.069Z,3.28
2023-02-06T03:47:53.292Z,4.15
2023-02-06T03:50:21.125Z,3.55
2023-02-06T03:52:50.979Z,3.05
2023-02-06T03:55:21.168Z,3.47
2023-02-06T03:57:52.566Z,3.55
2023-02-06T04:00:19.938Z,3.83
2023-02-06T04:02:48.945Z,3.85
2023-02-06T04:05:17.850Z,4.70
2023-02-06T04:07:44.410Z,3.63
2023-02-06T04:10:10.861Z,3.90
2023-02-06T04:12:38.002Z,3.70
2023-02-06T04:15:05.119Z,4.18
2023-02-06T04:17:46.410Z,4.40
2023-02-06T04:20:18.010Z,3.83
2023-02-06T04:22:44.433Z,3.30
2023-02-06T04:25:11.210Z,3.78
2023-02-06T04:27:37.927Z,3.60
2023-02-06T04:30:05.255Z,4.25
2023-02-06T04:32:31.717Z,3.90
2023-02-06T04:34:58.084Z,3.92
2023-02-06T04:37:24.520Z,3.92
2023-02-06T04:39:50.874Z,3.50
2023-02-06T04:42:17.289Z,4.03
2023-02-06T04:44:45.205Z,3.83
2023-02-06T04:47:11.794Z,3.70
2023-02-06T04:49:38.141Z,4.10
2023-02-06T04:52:04.594Z,4.38
2023-02-06T04:54:32.674Z,3.97
2023-02-06T04:56:59.242Z,4.20
2023-02-06T04:59:25.802Z,3.90
2023-02-06T05:01:52.137Z,4.63
2023-02-06T05:04:18.709Z,4.05
2023-02-06T05:06:45.163Z,4.07
2023-02-06T05:09:11.672Z,4.10
2023-02-06T05:11:38.081Z,3.95
2023-02-06T05:14:04.412Z,4.13
2023-02-06T05:16:30.843Z,4.53
2023-02-06T05:18:57.463Z,3.75
2023-02-06T05:21:25.119Z,3.20
2023-02-06T05:23:51.592Z,3.58
2023-02-06T05:26:18.161Z,4.20
2023-02-06T05:28:44.667Z,4.18
2023-02-06T05:31:18.023Z,3.97
2023-02-06T05:33:44.870Z,4.00
2023-02-06T05:36:11.293Z,3.38
2023-02-06T05:38:37.648Z,3.90
2023-02-06T05:41:04.170Z,3.78
2023-02-06T05:43:30.625Z,3.33
2023-02-06T05:45:57.045Z,3.88
2023-02-06T05:48:23.382Z,3.92
2023-02-06T05:50:49.829Z,4.32
2023-02-06T05:53:17.567Z,4.50
2023-02-06T05:55:43.892Z,5.00
2023-02-06T05:58:10.348Z,4.93
2023-02-06T06:00:36.725Z,5.75
2023-02-06T06:03:03.172Z,6.63
2023-02-06T06:05:29.679Z,4.82
2023-02-06T06:07:56.571Z,6.10
2023-02-06T06:10:23.058Z,6.57
2023-02-06T06:12:49.460Z,6.35
2023-02-06T06:15:15.997Z,6.60
2023-02-06T06:17:42.338Z,6.25
2023-02-06T06:20:09.346Z,7.15
2023-02-06T06:22:35.762Z,6.93
2023-02-06T06:25:02.122Z,6.55
2023-02-06T06:27:28.470Z,6.47
2023-02-06T06:29:54.853Z,7.13
2023-02-06T06:32:21.315Z,9.25
2023-02-06T06:34:47.658Z,9.38
2023-02-06T06:37:14.074Z,9.48
2023-02-06T06:39:40.570Z,9.07
2023-02-06T06:42:08.071Z,9.65
2023-02-06T06:44:34.498Z,9.00
2023-02-06T06:47:00.908Z,9.63
2023-02-06T06:49:29.039Z,8.15
2023-02-06T06:51:55.633Z,8.07
2023-02-06T06:54:22.749Z,7.72
2023-02-06T06:56:49.134Z,9.27
2023-02-06T06:59:15.521Z,7.63
2023-02-06T07:01:41.971Z,7.75
2023-02-06T07:04:08.391Z,7.82
2023-02-06T07:06:34.814Z,8.05
2023-02-06T07:09:01.277Z,6.22
2023-02-06T07:11:27.728Z,7.28
2023-02-06T07:13:54.128Z,6.22
2023-02-06T07:16:20.660Z,6.70
2023-02-06T07:18:47.346Z,7.47
2023-02-06T07:21:15.812Z,7.57
2023-02-06T07:23:43.391Z,7.70
2023-02-06T07:26:09.805Z,6.90
2023-02-06T07:28:36.619Z,8.00
2023-02-06T07:31:05.294Z,7.82
2023-02-06T07:33:32.234Z,9.02
2023-02-06T07:35:58.734Z,7.13
2023-02-06T07:38:25.476Z,7.68
2023-02-06T07:40:52.966Z,7.38
2023-02-06T07:43:19.392Z,6.55
2023-02-06T07:45:45.937Z,6.82
2023-02-06T07:48:12.461Z,6.45
2023-02-06T07:50:39.117Z,9.13
2023-02-06T07:53:05.525Z,6.57
2023-02-06T07:55:31.896Z,6.85
2023-02-06T07:58:00.583Z,6.90
2023-02-06T08:00:27.015Z,6.03
2023-02-06T08:02:53.565Z,7.57
2023-02-06T08:05:19.952Z,6.15
2023-02-06T08:07:46.569Z,7.18
2023-02-06T08:10:12.946Z,5.88
2023-02-06T08:12:39.319Z,6.35
2023-02-06T08:15:05.941Z,6.25
2023-02-06T08:17:32.340Z,6.10
2023-02-06T08:19:58.701Z,7.15
2023-02-06T08:22:25.121Z,6.43
2023-02-06T08:24:51.657Z,5.78
2023-02-06T08:27:18.168Z,6.78
2023-02-06T08:29:45.421Z,6.43
2023-02-06T08:32:11.781Z,6.18
2023-02-06T08:34:39.550Z,6.72
2023-02-06T08:37:06.055Z,7.05
2023-02-06T08:39:32.466Z,7.20
2023-02-06T08:41:58.900Z,8.60
2023-02-06T08:44:25.445Z,7.57
2023-02-06T08:46:58.850Z,7.20
2023-02-06T08:49:31.242Z,8.63
2023-02-06T08:51:59.559Z,9.18
2023-02-06T08:54:26.026Z,8.00
2023-02-06T08:56:52.717Z,3.00
2023-02-06T08:59:19.940Z,7.03
2023-02-06T09:01:46.568Z,7.00
2023-02-06T09:04:14.339Z,8.65
2023-02-06T09:06:43.381Z,7.68
2023-02-06T09:09:12.042Z,7.85
2023-02-06T09:11:39.086Z,8.48
2023-02-06T09:14:06.933Z,8.93
2023-02-06T09:16:34.600Z,8.55
2023-02-06T09:19:02.468Z,8.48
2023-02-06T09:21:31.984Z,8.55
2023-02-06T09:24:01.114Z,8.45
2023-02-06T09:26:44.792Z,9.50
2023-02-06T09:29:16.723Z,8.55
2023-02-06T09:31:43.611Z,9.20
2023-02-06T09:34:12.295Z,8.82
2023-02-06T09:36:39.136Z,8.68
2023-02-06T09:39:07.663Z,8.18
2023-02-06T09:41:37.267Z,10.32
2023-02-06T09:44:32.631Z,11.57
2023-02-06T09:47:05.439Z,11.77
2023-02-06T09:49:39.424Z,11.27
2023-02-06T09:52:20.983Z,10.38
2023-02-06T09:55:00.836Z,9.82
2023-02-06T09:57:48.903Z,10.73
2023-02-06T10:00:37.683Z,10.35
2023-02-06T10:03:21.406Z,10.80
2023-02-06T10:06:19.018Z,9.73
2023-02-06T10:09:10.989Z,11.25
2023-02-06T10:11:49.869Z,10.55
2023-02-06T10:14:26.044Z,11.32
2023-02-06T10:16:58.063Z,9.52
2023-02-06T10:19:49.257Z,9.10
2023-02-06T10:22:35.975Z,10.10
2023-02-06T10:25:11.622Z,10.65
2023-02-06T10:27:42.983Z,10.60
2023-02-06T10:30:19.597Z,11.02
2023-02-06T10:32:59.212Z,10.50
2023-02-06T10:35:31.898Z,10.88
2023-02-06T10:38:35.514Z,9.60
2023-02-06T10:41:27.983Z,10.10
2023-02-06T10:44:02.139Z,10.00
2023-02-06T10:46:46.251Z,10.13
2023-02-06T10:49:25.614Z,10.38
2023-02-06T10:51:59.064Z,10.70
2023-02-06T10:54:39.654Z,12.07
2023-02-06T10:57:21.977Z,12.15
2023-02-06T10:59:53.898Z,12.95
2023-02-06T11:02:28.496Z,12.15
2023-02-06T11:05:05.315Z,13.38
2023-02-06T11:07:38.548Z,12.77
2023-02-06T11:10:06.964Z,12.80
2023-02-06T11:12:41.638Z,14.20
2023-02-06T11:15:37.735Z,13.45
2023-02-06T11:18:07.680Z,12.50
2023-02-06T11:20:39.440Z,13.55
2023-02-06T11:23:22.626Z,11.48
2023-02-06T11:26:05.627Z,13.57
2023-02-06T11:28:35.471Z,14.50
2023-02-06T11:31:05.688Z,11.98
2023-02-06T11:34:01.623Z,12.50
2023-02-06T11:36:35.109Z,12.13
2023-02-06T11:39:07.299Z,13.13
2023-02-06T11:41:34.288Z,10.68
2023-02-06T11:44:06.691Z,11.80
2023-02-06T11:46:35.761Z,10.32
2023-02-06T11:49:31.913Z,11.13
2023-02-06T11:52:00.768Z,12.07
2023-02-06T11:57:20.444Z,10.88
2023-02-06T11:59:56.207Z,11.73
2023-02-06T12:02:33.726Z,10.65
2023-02-06T12:05:12.828Z,11.60
2023-02-06T12:07:45.295Z,11.02
2023-02-06T12:10:18.915Z,10.77
2023-02-06T12:12:51.667Z,11.05
2023-02-06T12:15:44.885Z,10.00
2023-02-06T12:18:16.274Z,9.38
2023-02-06T12:20:59.250Z,10.65
2023-02-06T12:23:38.366Z,10.38
2023-02-06T12:26:19.322Z,11.05
2023-02-06T12:28:56.018Z,9.82
2023-02-06T12:31:24.991Z,10.55
2023-02-06T12:33:55.994Z,10.82
2023-02-06T12:36:30.138Z,10.85
2023-02-06T12:39:22.896Z,9.73
2023-02-06T12:42:32.149Z,11.02
2023-02-06T12:45:27.916Z,9.25
2023-02-06T12:48:01.849Z,10.43
2023-02-06T12:50:33.725Z,11.18
2023-02-06T12:53:18.742Z,10.85
2023-02-06T12:56:00.543Z,10.93
2023-02-06T12:58:42.540Z,11.35
2023-02-06T13:01:37.160Z,11.05
2023-02-06T13:04:16.199Z,11.05
2023-02-06T13:06:51.570Z,10.45
2023-02-06T13:09:29.212Z,13.00
2023-02-06T13:12:19.590Z,11.23
2023-02-06T13:14:52.932Z,11.27
2023-02-06T13:17:37.346Z,11.50
2023-02-06T13:20:21.275Z,11.75
2023-02-06T13:22:50.763Z,11.40
2023-02-06T13:25:27.845Z,11.70
2023-02-06T13:28:03.237Z,12.82
2023-02-06T13:30:32.967Z,12.00
2023-02-06T13:33:16.701Z,12.23
2023-02-06T13:36:03.889Z,13.48
2023-02-06T13:38:33.576Z,13.07
2023-02-06T13:41:12.306Z,14.40
2023-02-06T13:43:40.250Z,12.43
2023-02-06T13:46:12.395Z,13.73
2023-02-06T13:48:53.828Z,12.98
2023-02-06T13:51:36.575Z,12.25
2023-02-06T13:54:18.425Z,12.65
2023-02-06T13:59:46.643Z,12.13
2023-02-06T14:02:20.989Z,11.77
2023-02-06T14:04:48.330Z,11.23
2023-02-06T14:07:21.917Z,11.02
2023-02-06T14:10:05.159Z,10.85
2023-02-06T14:12:52.989Z,10.27
2023-02-06T14:15:32.864Z,11.50
2023-02-06T14:18:20.663Z,11.60
2023-02-06T14:21:03.793Z,13.38
2023-02-06T14:23:49.186Z,11.70
2023-02-06T14:26:44.164Z,11.82
2023-02-06T14:29:22.939Z,22.70
2023-02-06T14:32:07.941Z,24.58
2023-02-06T14:35:09.366Z,12.00
2023-02-06T14:38:06.241Z,9.85
2023-02-06T14:40:42.738Z,9.52
2023-02-06T14:43:19.549Z,9.73
2023-02-06T14:46:05.655Z,8.88
2023-02-06T14:48:40.077Z,10.02
2023-02-06T14:51:08.934Z,10.73
2023-02-06T14:53:38.312Z,10.63
2023-02-06T14:56:17.554Z,8.40
2023-02-06T14:58:46.350Z,9.60
2023-02-06T15:01:20.883Z,9.13
2023-02-06T15:03:49.572Z,7.07
2023-02-06T15:06:33.349Z,10.60
2023-02-06T15:09:00.882Z,9.05
2023-02-06T15:11:33.076Z,8.18
2023-02-06T15:14:02.990Z,10.38
2023-02-06T15:16:31.185Z,9.50
2023-02-06T15:19:19.207Z,9.68
2023-02-06T15:21:46.218Z,9.48
2023-02-06T15:24:46.994Z,9.27
2023-02-06T15:27:28.266Z,12.68
2023-02-06T15:29:55.612Z,14.45
2023-02-06T15:32:31.841Z,9.65
2023-02-06T15:34:59.758Z,11.75
2023-02-06T15:37:30.704Z,12.77
2023-02-06T15:40:05.743Z,10.02
2023-02-06T15:42:33.106Z,9.77
2023-02-06T15:45:01.248Z,10.55
2023-02-06T15:47:28.722Z,9.45
2023-02-06T15:49:56.951Z,11.27
2023-02-06T15:52:46.903Z,10.25
2023-02-06T15:55:32.746Z,10.07
2023-02-06T15:58:03.449Z,11.93
2023-02-06T16:00:33.363Z,10.60
2023-02-06T16:03:18.766Z,10.25
2023-02-06T16:05:45.512Z,10.35
2023-02-06T16:08:18.371Z,10.55
2023-02-06T16:10:50.817Z,11.57
2023-02-06T16:13:21.024Z,10.02
2023-02-06T16:16:09.468Z,9.23
2023-02-06T16:18:38.871Z,9.40
2023-02-06T16:21:16.035Z,11.02
2023-02-06T16:23:51.840Z,9.70
2023-02-06T16:26:27.054Z,12.38
2023-02-06T16:29:21.545Z,11.38
2023-02-06T16:34:34.146Z,9.93
2023-02-06T16:37:00.762Z,11.63
2023-02-06T16:39:28.515Z,12.20
2023-02-06T16:41:55.287Z,9.18
2023-02-06T16:44:22.319Z,9.65
2023-02-06T16:46:48.777Z,9.52
2023-02-06T16:49:20.910Z,10.13
2023-02-06T16:51:51.585Z,9.73
2023-02-06T16:54:24.911Z,11.02
2023-02-06T16:56:53.093Z,9.75
2023-02-06T16:59:21.098Z,9.93
2023-02-06T17:01:47.917Z,10.15
2023-02-06T17:04:14.453Z,10.07
2023-02-06T17:06:41.109Z,10.85
2023-02-06T17:09:11.144Z,10.82
2023-02-06T17:11:39.012Z,10.52
2023-02-06T17:14:06.752Z,17.52
2023-02-06T17:16:35.813Z,18.38
2023-02-06T17:19:04.237Z,11.93
2023-02-06T17:21:33.282Z,9.85
2023-02-06T17:23:59.992Z,10.15
2023-02-06T17:26:27.977Z,14.23
2023-02-06T17:28:54.864Z,13.68
2023-02-06T17:31:25.586Z,10.05
2023-02-06T17:33:53.317Z,9.27
2023-02-06T17:36:29.219Z,9.45
2023-02-06T17:38:59.694Z,11.82
2023-02-06T17:41:27.836Z,11.70
2023-02-06T17:43:54.354Z,20.20
2023-02-06T17:46:20.928Z,14.23
2023-02-06T17:48:47.581Z,12.68
2023-02-06T17:51:14.348Z,8.10
2023-02-06T17:53:40.989Z,9.25
2023-02-06T17:56:11.935Z,9.63
2023-02-06T17:58:44.887Z,6.85
2023-02-06T18:01:14.019Z,7.53
2023-02-06T18:03:42.106Z,6.30
2023-02-06T18:06:09.558Z,6.40
2023-02-06T18:08:36.958Z,5.65
2023-02-06T18:11:21.837Z,5.18
2023-02-06T18:13:51.294Z,5.32
2023-02-06T18:16:23.736Z,5.80
2023-02-06T18:18:50.969Z,5.18
2023-02-06T18:21:19.438Z,5.85
2023-02-06T18:23:47.671Z,6.05
2023-02-06T18:26:18.551Z,5.10
2023-02-06T18:28:45.707Z,4.80
2023-02-06T18:31:33.273Z,5.78
2023-02-06T18:34:07.698Z,5.32
2023-02-06T18:36:36.265Z,5.05
2023-02-06T18:39:03.756Z,5.40
2023-02-06T18:41:49.165Z,6.10
2023-02-06T18:44:15.788Z,5.93
2023-02-06T18:46:42.562Z,5.88
2023-02-06T18:49:09.416Z,6.47
2023-02-06T18:51:36.501Z,6.45
2023-02-06T18:54:05.597Z,6.18
2023-02-06T18:56:32.621Z,6.78
2023-02-06T18:58:59.170Z,7.38
2023-02-06T19:01:26.439Z,6.70
2023-02-06T19:03:53.708Z,6.82
2023-02-06T19:06:24.311Z,6.68
2023-02-06T19:08:51.478Z,6.60
2023-02-06T19:11:19.356Z,7.22
2023-02-06T19:13:45.933Z,6.75
2023-02-06T19:16:15.082Z,6.40
2023-02-06T19:18:44.195Z,7.63
2023-02-06T19:21:18.144Z,7.32
2023-02-06T19:23:46.966Z,8.15
2023-02-06T19:28:46.312Z,8.75
2023-02-06T19:31:13.907Z,8.48
2023-02-06T19:33:41.300Z,8.00
2023-02-06T19:36:09.338Z,7.53
2023-02-06T19:38:36.805Z,7.97
2023-02-06T19:41:19.376Z,8.18
2023-02-06T19:43:47.975Z,8.23
2023-02-06T19:46:18.739Z,9.25
2023-02-06T19:48:47.177Z,9.00
2023-02-06T19:51:18.463Z,12.13
2023-02-06T19:53:45.934Z,10.32
2023-02-06T19:56:21.109Z,10.10
2023-02-06T20:01:16.718Z,11.68
2023-02-06T20:03:44.518Z,11.70
2023-02-06T20:06:13.767Z,11.35
2023-02-06T20:08:45.673Z,12.32
2023-02-06T20:11:16.046Z,12.07
2023-02-06T20:13:43.907Z,11.40
2023-02-06T20:16:18.830Z,12.18
2023-02-06T20:18:46.731Z,14.68
2023-02-06T20:21:44.538Z,17.17
2023-02-06T20:24:14.915Z,15.75
2023-02-06T20:26:43.275Z,12.43
2023-02-06T20:29:19.199Z,12.35
2023-02-06T20:31:45.916Z,11.77
2023-02-06T20:34:13.319Z,11.73
2023-02-06T20:36:41.720Z,12.55
2023-02-06T20:39:11.503Z,12.02
2023-02-06T20:41:38.654Z,10.77
2023-02-06T20:44:05.874Z,9.93
2023-02-06T20:46:35.503Z,10.27
2023-02-06T20:49:05.699Z,11.00
2023-02-06T20:51:32.633Z,10.60
2023-02-06T20:53:59.443Z,10.32
2023-02-06T20:56:27.088Z,10.00
2023-02-06T20:58:53.974Z,9.18
2023-02-06T21:01:27.068Z,9.90
2023-02-06T21:04:20.316Z,9.95
2023-02-06T21:06:50.107Z,10.38
2023-02-06T21:09:17.914Z,10.20
2023-02-06T21:11:47.370Z,9.68
2023-02-06T21:14:14.803Z,10.05
2023-02-06T21:16:42.388Z,8.77
2023-02-06T21:19:11.137Z,9.55
2023-02-06T21:24:05.479Z,8.63
2023-02-06T21:26:33.092Z,8.50
2023-02-06T21:29:00.183Z,8.15
2023-02-06T21:31:36.823Z,8.02
2023-02-06T21:34:09.008Z,7.95
2023-02-06T21:36:37.917Z,7.20
2023-02-06T21:39:05.619Z,8.32
2023-02-06T21:41:32.612Z,9.40
2023-02-06T21:43:59.378Z,9.35
2023-02-06T21:46:26.191Z,8.73
2023-02-06T21:48:53.538Z,9.25
2023-02-06T21:51:21.385Z,8.88
2023-02-06T21:53:47.974Z,8.45
2023-02-06T21:56:22.535Z,8.70
2023-02-06T21:58:49.939Z,8.75
2023-02-06T22:01:18.942Z,9.57
2023-02-06T22:03:46.780Z,9.93
2023-02-06T22:06:14.109Z,8.57
2023-02-06T22:08:48.215Z,8.45
2023-02-06T22:11:21.334Z,7.88
2023-02-06T22:13:48.374Z,9.05
2023-02-06T22:16:20.144Z,8.93
2023-02-06T22:18:47.139Z,8.32
2023-02-06T22:21:19.685Z,7.88
2023-02-06T22:23:47.846Z,8.20
2023-02-06T22:26:16.547Z,9.45
2023-02-06T22:28:44.421Z,8.82
2023-02-06T22:31:18.984Z,8.32
2023-02-06T22:33:46.697Z,9.07
2023-02-06T22:36:17.402Z,8.48
2023-02-06T22:38:45.653Z,8.15
2023-02-06T22:41:15.727Z,8.30
2023-02-06T22:43:43.806Z,8.77
2023-02-06T22:46:18.545Z,8.68
2023-02-06T22:48:45.127Z,7.40
2023-02-06T22:51:11.667Z,7.70
2023-02-06T22:53:38.758Z,7.80
2023-02-06T22:56:27.447Z,6.95
2023-02-06T22:58:55.965Z,7.72
2023-02-06T23:01:24.900Z,7.80
2023-02-06T23:03:52.661Z,8.63
2023-02-06T23:06:20.217Z,10.57
2023-02-06T23:08:47.333Z,10.18
2023-02-06T23:11:14.542Z,11.65
2023-02-06T23:13:41.396Z,10.90
2023-02-06T23:16:09.104Z,10.88
2023-02-06T23:18:36.131Z,10.43
2023-02-06T23:21:10.910Z,10.27
2023-02-06T23:23:38.517Z,10.57
2023-02-06T23:26:10.226Z,9.38
2023-02-06T23:28:37.609Z,8.32
2023-02-06T23:31:05.593Z,8.13
2023-02-06T23:33:32.420Z,8.63
2023-02-06T23:36:07.197Z,8.00
2023-02-06T23:38:33.841Z,8.48
2023-02-06T23:41:12.386Z,8.70
2023-02-06T23:43:39.915Z,8.00
2023-02-06T23:46:11.613Z,9.35
2023-02-06T23:48:38.989Z,7.28
2023-02-06T23:51:05.483Z,9.07
2023-02-06T23:53:32.085Z,8.43
2023-02-06T23:55:58.676Z,8.15
2023-02-06T23:58:25.443Z,8.15
